Time;durP1;ratioP1;P1;durP2;ratioP2;P2;SDS_P1;SDS_P2;PMS_P1;PMS_P2;Temp;Humidity;BMP_temperature;BMP_pressure;BME280_temperature;BME280_humidity;BME280_pressure;Samples;Min_cycle;Max_cycle;Signal;HPM_P1;HPM_P2
2021/03/03 00:09:49;;;;;;;20.98;8.77;;;8.80;99.90;;;;;;6747114;88;20199;-75
2021/03/03 00:19:49;;;;;;;22.40;9.13;;;8.50;99.90;;;;;;6747498;88;20185;-75
2021/03/03 00:29:50;;;;;;;20.92;9.10;;;8.60;99.90;;;;;;6746000;88;20192;-76
2021/03/03 00:39:51;;;;;;;25.55;9.57;;;8.40;99.90;;;;;;6748451;88;20209;-76
2021/03/03 00:49:51;;;;;;;19.73;9.18;;;8.10;99.90;;;;;;6740924;88;20287;-75
2021/03/03 00:59:52;;;;;;;21.70;9.30;;;7.70;99.90;;;;;;6745057;88;20262;-76
2021/03/03 01:09:52;;;;;;;17.98;8.70;;;7.70;99.90;;;;;;6746835;88;20310;-75
2021/03/03 01:19:53;;;;;;;23.85;9.73;;;7.70;99.90;;;;;;6743510;88;20206;-76
2021/03/03 01:29:53;;;;;;;24.98;9.98;;;7.30;99.90;;;;;;6744652;88;20699;-75
2021/03/03 01:39:54;;;;;;;21.23;9.75;;;7.50;99.90;;;;;;6746309;88;20669;-76
2021/03/03 01:49:54;;;;;;;20.27;8.93;;;7.10;99.90;;;;;;6744468;88;21083;-76
2021/03/03 01:59:55;;;;;;;21.85;9.50;;;6.80;99.90;;;;;;6746333;88;20189;-75
2021/03/03 02:10:06;;;;;;;21.70;9.43;;;6.70;99.90;;;;;;6744898;88;20670;-75
2021/03/03 02:20:10;;;;;;;20.30;9.15;;;6.70;99.90;;;;;;6742785;88;20277;-75
2021/03/03 02:30:11;;;;;;;20.62;9.93;;;6.70;99.90;;;;;;6752021;88;20205;-76
2021/03/03 02:40:13;;;;;;;19.90;9.43;;;6.90;99.90;;;;;;6749331;88;20300;-76
2021/03/03 02:50:14;;;;;;;20.95;9.57;;;6.60;99.90;;;;;;6752960;88;20235;-75
2021/03/03 03:00:21;;;;;;;22.27;10.07;;;6.40;99.90;;;;;;6752348;88;20985;-75
2021/03/03 03:20:25;;;;;;;20.60;9.32;;;5.90;99.90;;;;;;6694818;88;20687;-76
2021/03/03 03:30:28;;;;;;;21.10;9.52;;;5.80;99.90;;;;;;6708469;88;20644;-76
2021/03/03 03:40:29;;;;;;;24.37;9.68;;;5.70;99.90;;;;;;6706512;88;20201;-75
2021/03/03 03:50:30;;;;;;;22.90;10.13;;;5.60;99.90;;;;;;6703708;88;20321;-76
2021/03/03 04:00:31;;;;;;;24.00;9.95;;;5.50;99.90;;;;;;6703724;88;20646;-76
2021/03/03 04:10:32;;;;;;;23.02;10.07;;;5.50;99.90;;;;;;6703359;88;20291;-77
2021/03/03 04:20:32;;;;;;;27.35;9.95;;;5.60;99.90;;;;;;6704434;88;20201;-76
2021/03/03 04:30:34;;;;;;;26.00;10.25;;;5.80;99.90;;;;;;6706102;88;20576;-77
2021/03/03 04:40:35;;;;;;;25.77;9.80;;;6.00;99.90;;;;;;6702408;88;20217;-77
2021/03/03 04:50:35;;;;;;;22.40;9.45;;;5.90;99.90;;;;;;6688193;88;20234;-77
2021/03/03 05:00:36;;;;;;;24.00;10.55;;;5.80;99.90;;;;;;6687609;88;20227;-76
2021/03/03 05:10:37;;;;;;;23.67;9.77;;;5.90;99.90;;;;;;6687319;88;20193;-78
2021/03/03 05:20:38;;;;;;;27.70;10.95;;;6.00;99.90;;;;;;6683758;88;20190;-76
2021/03/03 05:30:38;;;;;;;25.95;10.52;;;5.90;99.90;;;;;;6688241;88;20204;-77
2021/03/03 05:40:39;;;;;;;22.67;10.32;;;5.80;99.90;;;;;;6689239;88;20199;-77
2021/03/03 05:50:42;;;;;;;25.67;10.35;;;6.10;99.90;;;;;;6688727;88;20198;-77
2021/03/03 06:00:43;;;;;;;23.90;9.98;;;6.20;99.90;;;;;;6687424;88;20185;-76
2021/03/03 06:10:44;;;;;;;20.50;10.45;;;6.20;99.90;;;;;;6682585;88;20346;-76
2021/03/03 06:20:48;;;;;;;24.30;10.45;;;6.10;99.90;;;;;;6685227;88;20205;-75
2021/03/03 06:30:48;;;;;;;25.92;10.98;;;6.00;99.90;;;;;;6684973;88;20191;-76
2021/03/03 06:40:57;;;;;;;21.23;10.13;;;5.80;99.90;;;;;;6682874;88;20232;-75
2021/03/03 06:50:58;;;;;;;24.17;10.52;;;5.90;99.90;;;;;;6682167;88;20183;-76
2021/03/03 07:00:58;;;;;;;25.17;10.75;;;5.80;99.90;;;;;;6686430;88;20657;-76
2021/03/03 07:10:59;;;;;;;25.85;11.43;;;6.10;99.90;;;;;;6687779;88;20206;-77
2021/03/03 07:21:00;;;;;;;26.15;11.07;;;6.40;99.90;;;;;;6686284;88;20198;-76
2021/03/03 07:31:01;;;;;;;29.58;11.88;;;6.40;99.90;;;;;;6690026;88;20194;-77
2021/03/03 07:41:07;;;;;;;34.55;12.90;;;6.40;99.90;;;;;;6689129;88;20637;-77
2021/03/03 07:51:09;;;;;;;32.87;11.73;;;6.50;99.90;;;;;;6687862;88;20206;-79
2021/03/03 08:01:11;;;;;;;26.58;10.13;;;7.10;99.90;;;;;;6679066;88;20205;-79
2021/03/03 08:11:11;;;;;;;22.58;10.18;;;7.30;99.90;;;;;;6686386;88;20183;-78
2021/03/03 08:21:11;;;;;;;28.40;11.43;;;7.90;99.90;;;;;;6685490;88;20635;-78
2021/03/03 08:31:15;;;;;;;22.98;10.52;;;8.40;99.90;;;;;;6686389;88;20236;-77
2021/03/03 08:41:15;;;;;;;24.70;10.18;;;9.10;99.90;;;;;;6682477;88;20284;-78
2021/03/03 08:51:36;;;;;;;23.17;11.05;;;9.70;99.90;;;;;;6689878;88;20632;-78
2021/03/03 09:02:07;;;;;;;26.83;11.27;;;10.40;99.90;;;;;;6683117;88;20190;-78
2021/03/03 09:12:10;;;;;;;23.85;10.80;;;11.20;99.90;;;;;;6688327;88;20350;-79
2021/03/03 09:22:27;;;;;;;24.87;10.48;;;11.70;99.90;;;;;;6695053;88;20212;-78
2021/03/03 09:32:28;;;;;;;21.45;10.73;;;12.20;99.90;;;;;;6703878;88;20208;-78
2021/03/03 09:42:39;;;;;;;23.05;11.02;;;13.30;99.90;;;;;;6698220;88;20189;-78
2021/03/03 09:52:43;;;;;;;33.38;13.65;;;13.00;99.90;;;;;;6696456;88;20269;-79
2021/03/03 10:03:00;;;;;;;25.30;12.45;;;13.50;99.90;;;;;;6702502;88;20189;-79
2021/03/03 10:13:01;;;;;;;29.55;13.70;;;14.10;98.30;;;;;;6700838;88;20578;-79
2021/03/03 10:23:08;;;;;;;24.83;11.82;;;15.30;95.90;;;;;;6700928;88;20193;-78
2021/03/03 10:33:10;;;;;;;22.20;10.70;;;15.30;94.60;;;;;;6698475;88;20208;-78
2021/03/03 10:43:14;;;;;;;21.00;10.20;;;16.00;92.50;;;;;;6696153;88;20218;-78
2021/03/03 10:53:14;;;;;;;27.75;11.10;;;16.90;90.50;;;;;;6698536;88;20191;-78
2021/03/03 11:03:15;;;;;;;23.87;10.02;;;17.90;86.80;;;;;;6700408;88;20287;-79
2021/03/03 11:13:16;;;;;;;23.15;10.43;;;19.10;82.40;;;;;;6702901;88;20187;-78
2021/03/03 11:23:16;;;;;;;29.30;11.88;;;20.90;76.00;;;;;;6703377;88;20281;-80
2021/03/03 11:33:17;;;;;;;28.73;10.93;;;22.20;66.70;;;;;;6701909;88;20679;-77
2021/03/03 11:43:18;;;;;;;28.17;10.07;;;22.80;65.00;;;;;;6712735;88;20496;-78
2021/03/03 11:53:19;;;;;;;21.70;10.55;;;24.00;61.80;;;;;;6645332;85;46016;-77
2021/03/03 12:03:19;;;;;;;23.47;11.03;;;24.10;59.20;;;;;;6636261;89;20213;-77
2021/03/03 12:13:20;;;;;;;26.27;11.93;;;24.00;57.30;;;;;;6634333;89;20197;-76
2021/03/03 12:23:21;;;;;;;28.50;12.25;;;22.20;59.50;;;;;;6635978;86;54387;-77
2021/03/03 12:33:21;;;;;;;27.13;11.25;;;21.80;60.40;;;;;;6646530;89;20474;-77
2021/03/03 12:43:22;;;;;;;25.00;11.60;;;22.30;60.10;;;;;;6639604;89;20189;-79
2021/03/03 12:53:22;;;;;;;27.25;11.15;;;24.70;56.30;;;;;;6641002;89;20504;-77
2021/03/03 13:03:23;;;;;;;28.92;11.07;;;23.70;56.20;;;;;;6636116;89;20573;-75
2021/03/03 13:13:24;;;;;;;23.73;11.10;;;27.50;53.40;;;;;;6637833;89;20196;-76
2021/03/03 13:23:24;;;;;;;25.50;10.70;;;29.10;48.80;;;;;;6637152;89;20746;-76
2021/03/03 13:33:25;;;;;;;47.22;12.65;;;30.00;48.00;;;;;;6638909;89;20993;-77
2021/03/03 13:43:25;;;;;;;23.92;11.12;;;29.30;46.20;;;;;;6634210;89;20176;-77
2021/03/03 13:53:26;;;;;;;32.90;12.20;;;29.40;45.60;;;;;;6637160;89;20218;-78
2021/03/03 14:03:26;;;;;;;27.98;10.75;;;27.00;47.90;;;;;;6637076;89;20338;-77
2021/03/03 14:13:27;;;;;;;23.52;10.73;;;26.50;48.90;;;;;;6633119;89;20827;-78
2021/03/03 14:23:27;;;;;;;21.83;10.00;;;27.50;48.00;;;;;;6636737;89;20192;-78
2021/03/03 14:33:28;;;;;;;27.05;10.55;;;27.60;47.90;;;;;;6645263;89;20193;-78
2021/03/03 14:43:29;;;;;;;25.92;10.35;;;26.40;48.00;;;;;;6649445;89;20278;-78
2021/03/03 14:53:29;;;;;;;30.58;10.98;;;25.40;49.50;;;;;;6649897;89;20212;-77
2021/03/03 15:03:30;;;;;;;27.30;11.07;;;24.40;51.00;;;;;;6646549;89;20184;-76
2021/03/03 15:13:31;;;;;;;23.00;10.07;;;23.90;51.60;;;;;;6647795;89;20218;-76
2021/03/03 15:23:31;;;;;;;24.00;9.40;;;23.30;52.10;;;;;;6657737;89;20420;-78
2021/03/03 15:33:32;;;;;;;25.40;10.45;;;23.00;53.40;;;;;;6654563;89;20618;-78
2021/03/03 15:43:32;;;;;;;26.15;10.07;;;22.50;54.10;;;;;;6656519;89;20318;-78
2021/03/03 15:53:33;;;;;;;37.35;10.63;;;22.10;54.30;;;;;;6657149;89;20194;-78
2021/03/03 16:03:33;;;;;;;43.30;11.48;;;21.70;54.90;;;;;;6658472;89;20366;-78
2021/03/03 16:13:34;;;;;;;35.35;10.57;;;21.10;56.10;;;;;;6663443;89;21022;-79
2021/03/03 16:23:34;;;;;;;30.70;10.70;;;20.40;57.30;;;;;;6666826;89;20225;-79
2021/03/03 16:33:35;;;;;;;27.80;10.18;;;19.50;58.60;;;;;;6666682;89;20215;-78
2021/03/03 16:43:36;;;;;;;30.20;10.07;;;18.60;61.60;;;;;;6662379;89;20206;-78
2021/03/03 16:53:36;;;;;;;33.13;10.00;;;18.40;62.40;;;;;;6664171;89;20302;-78
2021/03/03 17:03:37;;;;;;;30.88;10.25;;;17.70;64.20;;;;;;6655466;89;20278;-78
2021/03/03 17:13:38;;;;;;;23.55;9.25;;;17.50;66.10;;;;;;6669930;89;20224;-78
2021/03/03 17:23:38;;;;;;;39.70;10.98;;;17.10;67.60;;;;;;6665120;89;20241;-79
2021/03/03 17:33:39;;;;;;;26.90;10.13;;;16.30;71.70;;;;;;6656093;89;20204;-80
2021/03/03 17:43:40;;;;;;;28.55;12.98;;;15.70;71.90;;;;;;6672328;89;20291;-79
2021/03/03 17:53:40;;;;;;;31.12;10.65;;;15.40;74.00;;;;;;6665267;89;20243;-79
2021/03/03 18:03:41;;;;;;;28.07;11.20;;;14.60;79.30;;;;;;6662298;89;20648;-77
2021/03/03 18:13:42;;;;;;;25.83;11.25;;;14.10;87.80;;;;;;6665460;89;20196;-79
2021/03/03 18:23:42;;;;;;;31.15;13.60;;;14.00;94.00;;;;;;6661629;89;20184;-78
2021/03/03 18:33:43;;;;;;;28.17;12.20;;;13.70;94.30;;;;;;6659008;89;20692;-76
2021/03/03 18:43:45;;;;;;;30.92;11.63;;;13.40;97.00;;;;;;6657872;89;20274;-77
2021/03/03 18:53:46;;;;;;;31.98;12.85;;;13.30;98.30;;;;;;6659876;89;20233;-77
2021/03/03 19:03:48;;;;;;;45.95;15.32;;;13.20;99.00;;;;;;6656826;89;20211;-77
2021/03/03 19:13:48;;;;;;;24.70;11.23;;;13.20;99.40;;;;;;6657999;89;20221;-77
2021/03/03 19:23:50;;;;;;;32.40;13.68;;;12.90;99.90;;;;;;6665652;89;20988;-79
2021/03/03 19:33:50;;;;;;;26.83;11.05;;;12.60;99.90;;;;;;6660790;89;20712;-77
2021/03/03 19:43:53;;;;;;;33.50;13.85;;;12.20;99.90;;;;;;6662781;89;20201;-77
2021/03/03 19:53:53;;;;;;;39.97;14.40;;;12.30;99.90;;;;;;6657750;89;20298;-78
2021/03/03 20:03:54;;;;;;;30.62;14.13;;;12.20;99.90;;;;;;6664136;89;20305;-77
2021/03/03 20:13:57;;;;;;;30.35;12.02;;;11.90;99.90;;;;;;6653731;89;20271;-77
2021/03/03 20:23:58;;;;;;;28.25;11.35;;;11.60;99.90;;;;;;6658104;89;20192;-78
2021/03/03 20:33:58;;;;;;;25.75;11.23;;;11.40;99.90;;;;;;6664508;89;20215;-78
2021/03/03 20:43:59;;;;;;;23.90;10.63;;;11.00;99.90;;;;;;6657453;89;20189;-79
2021/03/03 20:53:59;;;;;;;34.45;12.88;;;11.00;99.90;;;;;;6662958;89;20512;-78
2021/03/03 21:04:00;;;;;;;29.53;12.00;;;11.00;99.90;;;;;;6659276;89;20262;-79
2021/03/03 21:14:01;;;;;;;30.45;11.95;;;10.80;99.90;;;;;;6663450;89;21151;-77
2021/03/03 21:24:02;;;;;;;35.22;14.35;;;10.90;99.90;;;;;;6656858;89;20259;-79
2021/03/03 21:34:02;;;;;;;25.65;12.35;;;10.60;99.90;;;;;;6657987;89;20269;-79
2021/03/03 21:44:04;;;;;;;28.30;12.90;;;10.50;99.90;;;;;;6660592;89;20230;-78
2021/03/03 21:54:04;;;;;;;30.10;12.60;;;10.10;99.90;;;;;;6661685;89;20180;-79
2021/03/03 22:04:05;;;;;;;29.98;13.45;;;10.20;99.90;;;;;;6658948;89;20741;-78
2021/03/03 22:14:05;;;;;;;34.33;13.25;;;10.10;99.90;;;;;;6662352;89;20226;-78
2021/03/03 22:24:07;;;;;;;30.30;12.15;;;9.90;99.90;;;;;;6658355;89;20208;-78
2021/03/03 22:34:07;;;;;;;34.28;12.93;;;9.90;99.90;;;;;;6658142;89;20356;-79
2021/03/03 22:44:08;;;;;;;31.87;11.45;;;9.80;99.90;;;;;;6656708;89;20228;-77
2021/03/03 22:54:09;;;;;;;29.93;12.93;;;9.60;99.90;;;;;;6659828;89;20180;-78
2021/03/03 23:04:10;;;;;;;32.53;13.00;;;9.60;99.90;;;;;;6660950;89;20563;-79
2021/03/03 23:14:12;;;;;;;28.20;12.73;;;9.60;99.90;;;;;;6656935;89;20191;-78
2021/03/03 23:24:13;;;;;;;28.38;11.98;;;9.20;99.90;;;;;;6660283;89;20221;-78
2021/03/03 23:34:13;;;;;;;29.12;12.05;;;9.10;99.90;;;;;;6658958;89;20736;-77
2021/03/03 23:44:14;;;;;;;33.95;12.25;;;9.20;99.90;;;;;;6662778;89;20271;-78
2021/03/03 23:54:14;;;;;;;30.33;12.60;;;9.00;99.90;;;;;;6664219;89;20624;-78
